createdAt,value
2023-04-04T00:02:42.583Z,50.17
2023-04-04T00:05:45.596Z,50.20
2023-04-04T00:08:48.171Z,50.22
2023-04-04T00:11:50.876Z,50.35
2023-04-04T00:14:53.492Z,50.31
2023-04-04T00:17:57.376Z,50.24
2023-04-04T00:21:00.054Z,50.22
2023-04-04T00:24:02.670Z,50.23
2023-04-04T00:27:05.336Z,50.26
2023-04-04T00:30:08.508Z,50.09
2023-04-04T00:33:11.166Z,50.18
2023-04-04T00:36:13.868Z,50.14
2023-04-04T00:39:17.487Z,50.05
2023-04-04T00:42:20.293Z,50.08
2023-04-04T00:45:23.475Z,50.12
2023-04-04T00:48:26.614Z,50.16
2023-04-04T00:51:29.186Z,50.23
2023-04-04T00:54:31.974Z,50.15
2023-04-04T00:57:34.963Z,50.16
2023-04-04T01:00:37.850Z,50.10
2023-04-04T01:03:41.750Z,50.11
2023-04-04T01:06:47.559Z,50.18
2023-04-04T01:09:51.679Z,50.20
2023-04-04T01:12:54.446Z,50.26
2023-04-04T01:15:57.036Z,50.28
2023-04-04T01:18:59.953Z,50.34
2023-04-04T01:22:04.101Z,50.23
2023-04-04T01:25:26.226Z,50.42
2023-04-04T01:28:28.890Z,50.52
2023-04-04T01:31:41.217Z,50.56
2023-04-04T01:35:12.952Z,50.60
2023-04-04T01:38:20.739Z,50.65
2023-04-04T01:41:25.099Z,50.75
2023-04-04T01:44:27.749Z,50.84
2023-04-04T01:47:38.516Z,50.87
2023-04-04T01:50:41.624Z,50.93
2023-04-04T01:53:44.369Z,51.03
2023-04-04T01:56:47.005Z,50.98
2023-04-04T01:59:49.677Z,51.04
2023-04-04T02:02:52.456Z,51.14
2023-04-04T02:05:55.147Z,51.21
2023-04-04T02:08:57.755Z,51.33
2023-04-04T02:12:01.117Z,51.34
2023-04-04T02:15:03.915Z,51.41
2023-04-04T02:18:06.649Z,51.46
2023-04-04T02:21:09.310Z,51.44
2023-04-04T02:24:18.728Z,51.45
2023-04-04T02:27:21.342Z,51.49
2023-04-04T02:30:24.069Z,51.61
2023-04-04T02:33:27.190Z,51.67
2023-04-04T02:36:29.895Z,51.77
2023-04-04T02:39:32.444Z,51.75
2023-04-04T02:42:46.055Z,51.87
2023-04-04T02:45:49.347Z,51.91
2023-04-04T02:48:52.231Z,51.98
2023-04-04T02:51:55.014Z,52.02
2023-04-04T02:55:05.225Z,52.12
2023-04-04T02:58:08.092Z,52.37
2023-04-04T03:01:10.759Z,52.35
2023-04-04T03:04:13.896Z,52.40
2023-04-04T03:07:16.618Z,52.46
2023-04-04T03:10:19.320Z,52.54
2023-04-04T03:13:22.263Z,52.71
2023-04-04T03:16:25.993Z,52.59
2023-04-04T03:19:28.723Z,52.55
2023-04-04T03:22:31.589Z,52.83
2023-04-04T03:25:35.772Z,53.23
2023-04-04T03:28:38.712Z,53.23
2023-04-04T03:31:41.916Z,53.29
2023-04-04T03:34:44.832Z,53.53
2023-04-04T03:37:47.606Z,53.52
2023-04-04T03:40:50.594Z,53.58
2023-04-04T03:43:53.192Z,53.70
2023-04-04T03:46:55.920Z,53.58
2023-04-04T03:49:58.477Z,53.72
2023-04-04T03:53:01.071Z,53.66
2023-04-04T03:56:09.897Z,53.78
2023-04-04T03:59:12.654Z,53.79
2023-04-04T04:02:15.567Z,53.99
2023-04-04T04:05:18.238Z,54.58
2023-04-04T04:08:21.971Z,54.35
2023-04-04T04:11:25.869Z,54.74
2023-04-04T04:18:07.286Z,55.21
2023-04-04T04:21:09.882Z,55.10
2023-04-04T04:24:15.735Z,55.08
2023-04-04T04:27:18.295Z,55.11
2023-04-04T04:30:20.956Z,55.10
2023-04-04T04:33:30.243Z,55.11
2023-04-04T04:36:33.329Z,55.00
2023-04-04T04:39:36.531Z,55.34
2023-04-04T04:42:44.364Z,55.48
2023-04-04T04:45:47.141Z,55.27
2023-04-04T04:48:49.948Z,55.29
2023-04-04T04:51:53.840Z,55.16
2023-04-04T04:54:56.437Z,55.14
2023-04-04T04:57:59.003Z,56.57
2023-04-04T05:01:02.145Z,56.70
2023-04-04T05:04:05.070Z,56.54
2023-04-04T05:07:08.485Z,56.85
2023-04-04T05:10:11.363Z,57.13
2023-04-04T05:13:14.186Z,56.86
2023-04-04T05:16:16.876Z,56.61
2023-04-04T05:19:19.601Z,56.48
2023-04-04T05:22:22.311Z,56.98
2023-04-04T05:25:25.049Z,57.33
2023-04-04T05:28:27.697Z,57.45
2023-04-04T05:31:30.450Z,56.83
2023-04-04T05:34:33.204Z,57.32
2023-04-04T05:37:39.624Z,56.73
2023-04-04T05:40:42.482Z,56.84
2023-04-04T05:43:45.170Z,56.71
2023-04-04T05:46:47.837Z,56.88
2023-04-04T05:49:50.570Z,56.53
2023-04-04T05:52:57.212Z,56.71
2023-04-04T05:56:01.079Z,56.92
2023-04-04T05:59:03.886Z,57.28
2023-04-04T06:02:08.347Z,57.14
2023-04-04T06:05:11.694Z,57.81
2023-04-04T06:08:14.339Z,57.52
2023-04-04T06:11:16.964Z,57.32
2023-04-04T06:14:19.536Z,57.66
2023-04-04T06:17:22.266Z,57.37
2023-04-04T06:20:24.954Z,57.34
2023-04-04T06:23:27.655Z,57.46
2023-04-04T06:26:30.372Z,58.78
2023-04-04T06:29:33.494Z,58.31
2023-04-04T06:32:36.117Z,58.85
2023-04-04T06:35:38.749Z,58.67
2023-04-04T06:38:42.459Z,58.56
2023-04-04T06:41:45.347Z,58.96
2023-04-04T06:44:47.977Z,59.01
2023-04-04T06:47:53.562Z,58.74
2023-04-04T06:50:56.582Z,58.73
2023-04-04T06:54:01.344Z,58.63
2023-04-04T06:57:04.815Z,58.94
2023-04-04T07:00:08.299Z,59.21
2023-04-04T07:03:11.232Z,58.85
2023-04-04T07:06:14.025Z,58.86
2023-04-04T07:09:28.016Z,58.63
2023-04-04T07:12:32.636Z,58.60
2023-04-04T07:15:35.255Z,58.43
2023-04-04T07:18:37.833Z,58.05
2023-04-04T07:21:44.988Z,58.40
2023-04-04T07:24:49.794Z,58.34
2023-04-04T07:27:59.726Z,58.29
2023-04-04T07:31:08.832Z,58.13
2023-04-04T07:34:11.619Z,58.27
2023-04-04T07:37:21.720Z,58.22
2023-04-04T07:40:24.380Z,58.16
2023-04-04T07:43:27.374Z,58.30
2023-04-04T07:46:30.079Z,58.21
2023-04-04T07:49:33.002Z,58.23
2023-04-04T07:52:35.724Z,58.23
2023-04-04T07:55:38.539Z,58.07
2023-04-04T07:58:41.227Z,57.97
2023-04-04T08:01:47.657Z,57.76
2023-04-04T08:04:50.573Z,57.65
2023-04-04T08:07:53.326Z,57.37
2023-04-04T08:10:55.941Z,57.32
2023-04-04T08:13:58.597Z,57.04
2023-04-04T08:17:01.624Z,56.77
2023-04-04T08:20:05.134Z,56.10
2023-04-04T08:23:07.724Z,56.38
2023-04-04T08:26:12.812Z,56.19
2023-04-04T08:29:15.780Z,55.60
2023-04-04T08:32:18.675Z,55.63
2023-04-04T08:35:21.393Z,55.71
2023-04-04T08:38:24.202Z,55.59
2023-04-04T08:41:27.700Z,54.72
2023-04-04T08:44:31.924Z,54.65
2023-04-04T08:47:39.136Z,54.54
2023-04-04T08:50:45.181Z,54.01
2023-04-04T08:54:05.105Z,54.44
2023-04-04T08:57:08.590Z,53.37
2023-04-04T09:00:12.104Z,53.29
2023-04-04T09:03:24.433Z,53.16
2023-04-04T09:06:28.067Z,53.77
2023-04-04T09:09:34.418Z,53.86
2023-04-04T09:12:40.153Z,53.16
2023-04-04T09:15:47.941Z,52.23
2023-04-04T09:18:52.984Z,53.08
2023-04-04T09:21:55.689Z,53.02
2023-04-04T09:24:58.387Z,53.29
2023-04-04T09:28:05.089Z,53.50
2023-04-04T09:31:10.155Z,53.47
2023-04-04T09:34:14.916Z,53.14
2023-04-04T09:37:18.510Z,52.99
2023-04-04T09:40:24.086Z,52.94
2023-04-04T09:43:31.203Z,53.02
2023-04-04T09:46:36.725Z,52.80
2023-04-04T09:49:39.521Z,52.87
2023-04-04T09:52:44.402Z,52.59
2023-04-04T09:55:52.236Z,52.05
2023-04-04T09:59:03.281Z,50.14
2023-04-04T10:02:10.508Z,50.96
2023-04-04T10:05:14.406Z,51.47
2023-04-04T10:08:18.631Z,51.50
2023-04-04T10:11:33.698Z,51.66
2023-04-04T10:14:36.751Z,50.64
2023-04-04T10:17:41.707Z,51.13
2023-04-04T10:20:46.404Z,51.10
2023-04-04T10:23:49.455Z,49.64
2023-04-04T10:26:53.553Z,49.58
2023-04-04T10:30:01.154Z,49.11
2023-04-04T10:33:12.009Z,50.42
2023-04-04T10:36:21.428Z,49.22
2023-04-04T10:39:33.412Z,49.24
2023-04-04T10:42:47.413Z,49.59
2023-04-04T10:45:51.945Z,50.06
2023-04-04T10:48:55.416Z,49.02
2023-04-04T10:51:58.390Z,49.57
2023-04-04T10:55:05.063Z,50.06
2023-04-04T10:58:09.012Z,49.67
2023-04-04T11:01:21.505Z,48.55
2023-04-04T11:04:38.144Z,46.56
2023-04-04T11:07:41.282Z,47.83
2023-04-04T11:10:45.700Z,48.87
2023-04-04T11:14:00.897Z,49.21
2023-04-04T11:17:05.495Z,48.26
2023-04-04T11:20:10.756Z,47.92
2023-04-04T11:23:24.456Z,48.22
2023-04-04T11:26:33.690Z,48.07
2023-04-04T11:29:53.738Z,48.28
2023-04-04T11:33:07.073Z,47.00
2023-04-04T11:36:24.994Z,47.22
2023-04-04T11:39:31.804Z,47.97
2023-04-04T11:42:38.599Z,47.37
2023-04-04T11:45:44.886Z,47.02
2023-04-04T11:48:48.110Z,47.69
2023-04-04T11:51:52.976Z,46.74
2023-04-04T11:54:55.627Z,47.35
2023-04-04T11:58:06.465Z,47.83
2023-04-04T12:01:09.330Z,47.68
2023-04-04T12:04:12.213Z,47.98
2023-04-04T12:07:17.378Z,47.49
2023-04-04T12:10:22.313Z,47.64
2023-04-04T12:13:31.276Z,45.79
2023-04-04T12:16:36.023Z,46.06
2023-04-04T12:19:40.118Z,44.90
2023-04-04T12:22:43.276Z,40.03
2023-04-04T12:25:49.961Z,44.49
2023-04-04T12:28:55.516Z,44.36
2023-04-04T12:31:58.359Z,44.40
2023-04-04T12:35:01.646Z,42.43
2023-04-04T12:38:10.998Z,44.78
2023-04-04T12:41:19.836Z,45.24
2023-04-04T12:44:30.527Z,42.10
2023-04-04T12:47:34.250Z,42.51
2023-04-04T12:50:53.796Z,42.12
2023-04-04T12:53:58.507Z,44.63
2023-04-04T12:57:05.999Z,45.20
2023-04-04T13:00:09.721Z,44.69
2023-04-04T13:03:22.814Z,42.97
2023-04-04T13:06:30.749Z,43.78
2023-04-04T13:09:35.864Z,44.24
2023-04-04T13:13:31.019Z,43.36
2023-04-04T13:16:41.522Z,44.30
2023-04-04T13:19:44.246Z,44.70
2023-04-04T13:22:47.053Z,44.34
2023-04-04T13:25:49.925Z,43.71
2023-04-04T13:28:52.882Z,43.72
2023-04-04T13:31:55.702Z,43.96
2023-04-04T13:34:58.388Z,44.06
2023-04-04T13:38:01.494Z,44.12
2023-04-04T13:41:04.288Z,43.55
2023-04-04T13:44:07.560Z,43.10
2023-04-04T13:47:10.303Z,41.31
2023-04-04T13:50:13.125Z,41.39
2023-04-04T13:53:15.959Z,42.13
2023-04-04T13:56:19.425Z,42.88
2023-04-04T13:59:22.436Z,43.24
2023-04-04T14:02:25.819Z,43.04
2023-04-04T14:05:28.699Z,43.41
2023-04-04T14:08:33.088Z,43.04
2023-04-04T14:11:36.820Z,42.40
2023-04-04T14:14:41.099Z,42.55
2023-04-04T14:17:43.838Z,40.87
2023-04-04T14:20:48.957Z,39.95
2023-04-04T14:23:54.593Z,40.24
2023-04-04T14:27:03.313Z,41.07
2023-04-04T14:30:06.892Z,41.76
2023-04-04T14:33:10.057Z,41.42
2023-04-04T14:36:12.821Z,41.95
2023-04-04T14:39:17.598Z,41.79
2023-04-04T14:42:20.478Z,41.51
2023-04-04T14:45:23.804Z,41.39
2023-04-04T14:48:26.676Z,41.91
2023-04-04T14:51:29.410Z,41.75
2023-04-04T14:54:32.437Z,41.68
2023-04-04T14:57:39.201Z,41.61
2023-04-04T15:00:50.482Z,39.41
2023-04-04T15:03:54.252Z,37.62
2023-04-04T15:07:00.947Z,38.83
2023-04-04T15:10:07.398Z,38.82
2023-04-04T15:13:12.609Z,39.14
2023-04-04T15:16:17.889Z,39.80
2023-04-04T15:19:20.936Z,40.05
2023-04-04T15:22:23.921Z,39.78
2023-04-04T15:25:26.711Z,40.59
2023-04-04T15:28:32.244Z,39.87
2023-04-04T15:31:35.352Z,40.26
2023-04-04T15:34:38.086Z,37.99
2023-04-04T15:37:40.823Z,40.16
2023-04-04T15:40:43.677Z,40.41
2023-04-04T15:43:46.971Z,40.47
2023-04-04T15:46:51.430Z,39.40
2023-04-04T15:49:54.262Z,40.22
2023-04-04T15:52:57.152Z,40.31
2023-04-04T15:56:02.204Z,40.59
2023-04-04T15:59:07.010Z,40.76
2023-04-04T16:02:09.967Z,40.96
2023-04-04T16:05:12.840Z,40.70
2023-04-04T16:08:15.745Z,40.87
2023-04-04T16:11:19.299Z,40.93
2023-04-04T16:14:22.933Z,40.10
2023-04-04T16:17:32.072Z,40.64
2023-04-04T16:20:36.377Z,40.78
2023-04-04T16:23:39.430Z,40.33
2023-04-04T16:26:50.388Z,40.34
2023-04-04T16:29:53.427Z,39.69
2023-04-04T16:32:56.521Z,39.61
2023-04-04T16:35:59.363Z,40.65
2023-04-04T16:39:09.518Z,40.87
2023-04-04T16:42:19.512Z,39.92
2023-04-04T16:45:22.483Z,39.85
2023-04-04T16:48:25.119Z,40.76
2023-04-04T16:51:28.519Z,41.06
2023-04-04T16:54:31.520Z,41.35
2023-04-04T16:57:35.784Z,41.58
2023-04-04T17:00:39.009Z,41.75
2023-04-04T17:03:42.289Z,41.62
2023-04-04T17:06:46.015Z,41.67
2023-04-04T17:09:50.507Z,41.83
2023-04-04T17:12:53.281Z,42.10
2023-04-04T17:15:56.676Z,41.96
2023-04-04T17:18:59.362Z,41.94
2023-04-04T17:22:02.409Z,42.01
2023-04-04T17:25:05.978Z,41.98
2023-04-04T17:28:09.347Z,42.05
2023-04-04T17:31:18.501Z,42.37
2023-04-04T17:34:25.855Z,42.49
2023-04-04T17:37:32.880Z,42.60
2023-04-04T17:40:42.760Z,42.93
2023-04-04T17:44:01.812Z,43.22
2023-04-04T17:47:28.404Z,43.38
2023-04-04T17:50:44.476Z,43.70
2023-04-04T17:53:54.153Z,43.66
2023-04-04T17:57:02.278Z,43.75
2023-04-04T18:00:27.433Z,43.65
2023-04-04T18:03:43.617Z,43.71
2023-04-04T18:07:15.876Z,43.76
2023-04-04T18:10:30.106Z,43.91
2023-04-04T18:13:56.184Z,43.92
2023-04-04T18:17:22.191Z,44.19
2023-04-04T18:20:39.154Z,44.44
2023-04-04T18:23:58.270Z,44.48
2023-04-04T18:27:13.801Z,44.60
2023-04-04T18:30:28.314Z,44.70
2023-04-04T18:33:44.928Z,44.86
2023-04-04T18:36:56.522Z,44.98
2023-04-04T18:40:08.449Z,45.03
2023-04-04T18:43:11.759Z,45.03
2023-04-04T18:46:16.225Z,45.22
2023-04-04T18:49:22.661Z,45.17
2023-04-04T18:52:26.111Z,45.41
2023-04-04T18:55:32.396Z,45.49
2023-04-04T18:59:00.854Z,45.45
2023-04-04T19:02:08.004Z,45.40
2023-04-04T19:05:13.252Z,45.77
2023-04-04T19:08:18.424Z,45.80
2023-04-04T19:11:25.638Z,45.78
2023-04-04T19:14:31.965Z,45.84
2023-04-04T19:17:38.257Z,45.96
2023-04-04T19:20:43.704Z,45.81
2023-04-04T19:23:47.533Z,45.89
2023-04-04T19:26:58.762Z,45.98
2023-04-04T19:30:35.657Z,45.95
2023-04-04T19:33:43.092Z,45.91
2023-04-04T19:37:04.814Z,45.98
2023-04-04T19:40:25.915Z,46.05
2023-04-04T19:43:40.191Z,46.18
2023-04-04T19:46:43.446Z,46.24
2023-04-04T19:49:53.201Z,46.21
2023-04-04T19:53:14.585Z,46.19
2023-04-04T19:56:27.869Z,46.40
2023-04-04T19:59:51.733Z,46.40
2023-04-04T20:02:57.213Z,46.34
2023-04-04T20:06:13.421Z,46.32
2023-04-04T20:09:40.282Z,46.50
2023-04-04T20:12:45.186Z,46.48
2023-04-04T20:15:50.806Z,46.43
2023-04-04T20:18:54.602Z,46.69
2023-04-04T20:22:02.939Z,46.50
2023-04-04T20:25:12.729Z,46.83
2023-04-04T20:28:25.724Z,47.06
2023-04-04T20:31:34.854Z,46.82
2023-04-04T20:34:46.128Z,47.20
2023-04-04T20:37:49.307Z,46.93
2023-04-04T20:40:52.346Z,47.08
2023-04-04T20:43:57.662Z,47.08
2023-04-04T20:47:00.362Z,47.14
2023-04-04T20:50:39.721Z,47.42
2023-04-04T20:53:42.739Z,47.52
2023-04-04T20:56:47.650Z,47.39
2023-04-04T20:59:52.100Z,47.21
2023-04-04T21:02:58.387Z,47.40
2023-04-04T21:06:12.999Z,47.45
2023-04-04T21:09:15.794Z,47.71
2023-04-04T21:12:18.502Z,47.82
2023-04-04T21:15:26.477Z,48.12
2023-04-04T21:18:32.581Z,47.90
2023-04-04T21:21:37.317Z,48.19
2023-04-04T21:24:40.358Z,48.44
2023-04-04T21:27:43.018Z,48.54
2023-04-04T21:30:46.679Z,48.42
2023-04-04T21:33:53.362Z,48.70
2023-04-04T21:37:01.412Z,48.52
2023-04-04T21:40:07.177Z,48.57
2023-04-04T21:43:09.902Z,48.68
2023-04-04T21:46:12.555Z,48.96
2023-04-04T21:49:15.488Z,49.13
2023-04-04T21:52:18.420Z,49.24
2023-04-04T21:55:21.670Z,49.23
2023-04-04T21:58:24.807Z,49.61
2023-04-04T22:01:28.180Z,49.46
2023-04-04T22:04:31.036Z,49.37
2023-04-04T22:07:33.807Z,49.16
2023-04-04T22:10:45.514Z,49.22
2023-04-04T22:13:49.846Z,49.45
2023-04-04T22:16:53.158Z,49.24
2023-04-04T22:19:58.960Z,49.19
2023-04-04T22:23:05.815Z,49.39
2023-04-04T22:29:27.840Z,49.78
2023-04-04T22:32:33.492Z,49.34
2023-04-04T22:35:37.132Z,49.74
2023-04-04T22:38:39.753Z,49.67
2023-04-04T22:41:42.436Z,49.78
2023-04-04T22:44:47.732Z,50.74
2023-04-04T22:47:50.832Z,51.18
2023-04-04T22:50:58.855Z,50.80
2023-04-04T22:54:02.560Z,51.42
2023-04-04T22:57:05.372Z,51.15
2023-04-04T23:00:12.900Z,50.82
2023-04-04T23:03:15.939Z,50.47
2023-04-04T23:06:19.953Z,50.83
2023-04-04T23:09:22.961Z,50.96
2023-04-04T23:12:26.294Z,51.19
2023-04-04T23:15:29.133Z,51.01
2023-04-04T23:18:32.134Z,50.87
2023-04-04T23:21:37.199Z,50.75
2023-04-04T23:24:40.386Z,50.67
2023-04-04T23:27:43.038Z,50.86
2023-04-04T23:30:45.808Z,50.68
2023-04-04T23:33:49.042Z,50.80
2023-04-04T23:36:51.883Z,50.74
2023-04-04T23:39:54.841Z,50.75
2023-04-04T23:42:57.597Z,50.79
2023-04-04T23:46:00.553Z,50.74
2023-04-04T23:49:03.385Z,50.68
2023-04-04T23:52:06.877Z,50.82
2023-04-04T23:55:09.884Z,50.80
2023-04-04T23:58:12.655Z,50.87
